sensor_id;sensor_type;location;lat;lon;timestamp;pressure;altitude;pressure_sealevel;temperature;humidity
75219;BME280;63801;49.414;19.474;2024-01-15T00:00:45;92161.44;;;-2.57;81.91
75219;BME280;63801;49.414;19.474;2024-01-15T00:02:45;92160.66;;;-2.58;81.62
75219;BME280;63801;49.414;19.474;2024-01-15T00:04:45;92148.25;;;-2.57;81.84
75219;BME280;63801;49.414;19.474;2024-01-15T00:06:46;92156.94;;;-2.57;81.58
75219;BME280;63801;49.414;19.474;2024-01-15T00:08:46;92128.38;;;-2.63;81.68
75219;BME280;63801;49.414;19.474;2024-01-15T00:10:46;92142.50;;;-2.59;81.73
75219;BME280;63801;49.414;19.474;2024-01-15T00:12:47;92154.31;;;-2.57;81.66
75219;BME280;63801;49.414;19.474;2024-01-15T00:14:47;92155.38;;;-2.58;81.89
75219;BME280;63801;49.414;19.474;2024-01-15T00:16:47;92145.28;;;-2.56;81.83
75219;BME280;63801;49.414;19.474;2024-01-15T00:18:50;92133.66;;;-2.55;81.34
75219;BME280;63801;49.414;19.474;2024-01-15T00:20:50;92142.06;;;-2.53;81.39
75219;BME280;63801;49.414;19.474;2024-01-15T00:22:51;92138.50;;;-2.57;81.26
75219;BME280;63801;49.414;19.474;2024-01-15T00:24:51;92117.06;;;-2.55;81.50
75219;BME280;63801;49.414;19.474;2024-01-15T00:26:51;92118.63;;;-2.54;81.29
75219;BME280;63801;49.414;19.474;2024-01-15T00:28:53;92123.91;;;-2.54;81.38
75219;BME280;63801;49.414;19.474;2024-01-15T00:30:53;92121.56;;;-2.56;81.38
75219;BME280;63801;49.414;19.474;2024-01-15T00:32:54;92127.03;;;-2.52;81.54
75219;BME280;63801;49.414;19.474;2024-01-15T00:34:54;92123.28;;;-2.51;81.21
75219;BME280;63801;49.414;19.474;2024-01-15T00:36:54;92125.13;;;-2.52;81.02
75219;BME280;63801;49.414;19.474;2024-01-15T00:38:55;92120.47;;;-2.55;81.25
75219;BME280;63801;49.414;19.474;2024-01-15T00:40:55;92120.47;;;-2.55;81.13
75219;BME280;63801;49.414;19.474;2024-01-15T00:42:55;92127.31;;;-2.54;81.20
75219;BME280;63801;49.414;19.474;2024-01-15T00:44:56;92113.06;;;-2.53;81.31
75219;BME280;63801;49.414;19.474;2024-01-15T00:46:56;92103.56;;;-2.54;80.94
75219;BME280;63801;49.414;19.474;2024-01-15T00:48:56;92114.00;;;-2.49;81.07
75219;BME280;63801;49.414;19.474;2024-01-15T00:50:57;92109.31;;;-2.52;81.19
75219;BME280;63801;49.414;19.474;2024-01-15T00:52:57;92107.44;;;-2.51;80.92
75219;BME280;63801;49.414;19.474;2024-01-15T00:54:58;92114.00;;;-2.49;81.02
75219;BME280;63801;49.414;19.474;2024-01-15T00:56:58;92114.75;;;-2.48;80.96
75219;BME280;63801;49.414;19.474;2024-01-15T00:59:00;92108.72;;;-2.49;80.84
75219;BME280;63801;49.414;19.474;2024-01-15T01:01:01;92106.38;;;-2.50;80.84
75219;BME280;63801;49.414;19.474;2024-01-15T01:03:01;92108.56;;;-2.52;81.19
75219;BME280;63801;49.414;19.474;2024-01-15T01:05:01;92095.81;;;-2.50;80.80
75219;BME280;63801;49.414;19.474;2024-01-15T01:07:02;92096.13;;;-2.52;81.07
75219;BME280;63801;49.414;19.474;2024-01-15T01:09:02;92094.75;;;-2.49;80.87
75219;BME280;63801;49.414;19.474;2024-01-15T01:11:03;92099.69;;;-2.48;80.80
75219;BME280;63801;49.414;19.474;2024-01-15T01:13:03;92091.16;;;-2.53;80.72
75219;BME280;63801;49.414;19.474;2024-01-15T01:15:04;92090.25;;;-2.49;80.86
75219;BME280;63801;49.414;19.474;2024-01-15T01:17:05;92080.16;;;-2.47;80.87
75219;BME280;63801;49.414;19.474;2024-01-15T01:19:05;92082.50;;;-2.45;81.01
75219;BME280;63801;49.414;19.474;2024-01-15T01:21:07;92073.50;;;-2.44;81.08
75219;BME280;63801;49.414;19.474;2024-01-15T01:23:07;92072.38;;;-2.43;80.88
75219;BME280;63801;49.414;19.474;2024-01-15T01:25:08;92064.66;;;-2.40;80.68
75219;BME280;63801;49.414;19.474;2024-01-15T01:27:09;92057.19;;;-2.38;81.03
75219;BME280;63801;49.414;19.474;2024-01-15T01:29:09;92050.34;;;-2.39;80.96
75219;BME280;63801;49.414;19.474;2024-01-15T01:31:09;92045.06;;;-2.39;80.63
75219;BME280;63801;49.414;19.474;2024-01-15T01:33:10;92051.91;;;-2.38;80.93
75219;BME280;63801;49.414;19.474;2024-01-15T01:35:10;92045.84;;;-2.38;80.82
75219;BME280;63801;49.414;19.474;2024-01-15T01:37:11;92037.16;;;-2.39;80.43
75219;BME280;63801;49.414;19.474;2024-01-15T01:39:13;92036.72;;;-2.41;80.56
75219;BME280;63801;49.414;19.474;2024-01-15T01:41:14;92039.06;;;-2.39;80.50
75219;BME280;63801;49.414;19.474;2024-01-15T01:43:15;92026.00;;;-2.44;80.59
75219;BME280;63801;49.414;19.474;2024-01-15T01:45:15;92029.09;;;-2.42;80.53
75219;BME280;63801;49.414;19.474;2024-01-15T01:47:16;92024.91;;;-2.43;80.76
75219;BME280;63801;49.414;19.474;2024-01-15T01:49:17;92019.19;;;-2.45;80.68
75219;BME280;63801;49.414;19.474;2024-01-15T01:51:18;92027.88;;;-2.45;80.30
75219;BME280;63801;49.414;19.474;2024-01-15T01:53:20;92008.16;;;-2.56;80.31
75219;BME280;63801;49.414;19.474;2024-01-15T01:55:24;92014.34;;;-2.52;80.76
75219;BME280;63801;49.414;19.474;2024-01-15T01:57:26;92021.03;;;-2.54;80.50
75219;BME280;63801;49.414;19.474;2024-01-15T01:59:27;92024.16;;;-2.52;80.39
75219;BME280;63801;49.414;19.474;2024-01-15T02:01:28;92001.78;;;-2.63;80.49
75219;BME280;63801;49.414;19.474;2024-01-15T02:03:30;92019.03;;;-2.57;80.61
75219;BME280;63801;49.414;19.474;2024-01-15T02:05:30;92010.78;;;-2.56;80.45
75219;BME280;63801;49.414;19.474;2024-01-15T02:07:31;92018.41;;;-2.54;80.54
75219;BME280;63801;49.414;19.474;2024-01-15T02:09:32;92009.06;;;-2.52;80.50
75219;BME280;63801;49.414;19.474;2024-01-15T02:11:32;91994.50;;;-2.58;80.30
75219;BME280;63801;49.414;19.474;2024-01-15T02:13:32;92006.00;;;-2.54;80.48
75219;BME280;63801;49.414;19.474;2024-01-15T02:15:33;91991.25;;;-2.55;80.26
75219;BME280;63801;49.414;19.474;2024-01-15T02:17:34;91997.59;;;-2.56;80.37
75219;BME280;63801;49.414;19.474;2024-01-15T02:19:34;91990.16;;;-2.54;80.33
75219;BME280;63801;49.414;19.474;2024-01-15T02:21:34;91992.03;;;-2.54;80.56
75219;BME280;63801;49.414;19.474;2024-01-15T02:23:35;91983.47;;;-2.51;80.33
75219;BME280;63801;49.414;19.474;2024-01-15T02:25:42;91999.78;;;-2.49;80.39
75219;BME280;63801;49.414;19.474;2024-01-15T02:27:44;91983.47;;;-2.51;80.26
75219;BME280;63801;49.414;19.474;2024-01-15T02:29:46;91993.59;;;-2.45;80.17
75219;BME280;63801;49.414;19.474;2024-01-15T02:31:46;91968.44;;;-2.51;80.29
75219;BME280;63801;49.414;19.474;2024-01-15T02:33:47;91973.41;;;-2.49;80.17
75219;BME280;63801;49.414;19.474;2024-01-15T02:35:47;91989.22;;;-2.41;80.49
75219;BME280;63801;49.414;19.474;2024-01-15T02:37:50;91977.28;;;-2.38;80.42
75219;BME280;63801;49.414;19.474;2024-01-15T02:39:50;91973.41;;;-2.41;80.21
75219;BME280;63801;49.414;19.474;2024-01-15T02:41:50;91970.75;;;-2.41;79.80
75219;BME280;63801;49.414;19.474;2024-01-15T02:43:51;91964.09;;;-2.47;79.99
75219;BME280;63801;49.414;19.474;2024-01-15T02:45:51;91964.72;;;-2.50;79.69
75219;BME280;63801;49.414;19.474;2024-01-15T02:47:51;91958.97;;;-2.52;80.02
75219;BME280;63801;49.414;19.474;2024-01-15T02:49:52;91950.91;;;-2.55;79.87
75219;BME280;63801;49.414;19.474;2024-01-15T02:51:52;91945.94;;;-2.65;79.79
75219;BME280;63801;49.414;19.474;2024-01-15T02:53:52;91952.00;;;-2.65;79.79
75219;BME280;63801;49.414;19.474;2024-01-15T02:55:53;91957.91;;;-2.68;79.84
75219;BME280;63801;49.414;19.474;2024-01-15T02:57:53;91953.25;;;-2.71;79.70
75219;BME280;63801;49.414;19.474;2024-01-15T02:59:53;91953.09;;;-2.75;79.82
75219;BME280;63801;49.414;19.474;2024-01-15T03:01:53;91952.00;;;-2.74;79.75
75219;BME280;63801;49.414;19.474;2024-01-15T03:03:54;91954.19;;;-2.76;79.60
75219;BME280;63801;49.414;19.474;2024-01-15T03:05:55;91947.66;;;-2.78;79.78
75219;BME280;63801;49.414;19.474;2024-01-15T03:07:55;91945.34;;;-2.80;79.67
75219;BME280;63801;49.414;19.474;2024-01-15T03:09:56;91948.59;;;-2.83;79.65
75219;BME280;63801;49.414;19.474;2024-01-15T03:11:56;91941.94;;;-2.89;79.70
75219;BME280;63801;49.414;19.474;2024-01-15T03:13:56;91942.22;;;-2.90;79.84
75219;BME280;63801;49.414;19.474;2024-01-15T03:15:57;91928.13;;;-2.94;79.75
75219;BME280;63801;49.414;19.474;2024-01-15T03:17:57;91924.41;;;-3.02;79.86
75219;BME280;63801;49.414;19.474;2024-01-15T03:19:57;91938.38;;;-3.01;79.71
75219;BME280;63801;49.414;19.474;2024-01-15T03:21:58;91934.16;;;-3.02;79.93
75219;BME280;63801;49.414;19.474;2024-01-15T03:24:00;91919.72;;;-3.13;80.04
75219;BME280;63801;49.414;19.474;2024-01-15T03:26:00;91933.84;;;-3.09;80.09
75219;BME280;63801;49.414;19.474;2024-01-15T03:28:01;91920.38;;;-3.17;80.12
75219;BME280;63801;49.414;19.474;2024-01-15T03:30:01;91930.75;;;-3.11;80.26
75219;BME280;63801;49.414;19.474;2024-01-15T03:32:02;91936.66;;;-3.14;80.21
75219;BME280;63801;49.414;19.474;2024-01-15T03:34:03;91930.91;;;-3.17;80.12
75219;BME280;63801;49.414;19.474;2024-01-15T03:36:03;91935.69;;;-3.19;80.17
75219;BME280;63801;49.414;19.474;2024-01-15T03:38:04;91941.28;;;-3.20;80.48
75219;BME280;63801;49.414;19.474;2024-01-15T03:40:05;91930.91;;;-3.17;80.53
75219;BME280;63801;49.414;19.474;2024-01-15T03:42:06;91923.91;;;-3.21;80.47
75219;BME280;63801;49.414;19.474;2024-01-15T03:44:06;91933.06;;;-3.19;80.30
75219;BME280;63801;49.414;19.474;2024-01-15T03:46:07;91917.44;;;-3.15;80.48
75219;BME280;63801;49.414;19.474;2024-01-15T03:48:07;91908.13;;;-3.12;80.54
75219;BME280;63801;49.414;19.474;2024-01-15T03:50:08;91917.72;;;-3.08;80.34
75219;BME280;63801;49.414;19.474;2024-01-15T03:52:08;91924.72;;;-3.03;80.43
75219;BME280;63801;49.414;19.474;2024-01-15T03:54:09;91909.38;;;-3.01;80.52
75219;BME280;63801;49.414;19.474;2024-01-15T03:56:09;91919.59;;;-3.00;80.32
75219;BME280;63801;49.414;19.474;2024-01-15T03:58:09;91914.03;;;-2.98;80.16
75219;BME280;63801;49.414;19.474;2024-01-15T04:00:10;91903.47;;;-2.98;80.04
75219;BME280;63801;49.414;19.474;2024-01-15T04:02:11;91889.38;;;-3.02;80.18
75219;BME280;63801;49.414;19.474;2024-01-15T04:04:11;91909.38;;;-3.01;80.15
75219;BME280;63801;49.414;19.474;2024-01-15T04:06:12;91887.97;;;-3.08;79.87
75219;BME280;63801;49.414;19.474;2024-01-15T04:08:12;91898.34;;;-3.03;79.75
75219;BME280;63801;49.414;19.474;2024-01-15T04:10:13;91887.38;;;-3.05;79.78
75219;BME280;63801;49.414;19.474;2024-01-15T04:12:13;91892.16;;;-3.07;79.94
75219;BME280;63801;49.414;19.474;2024-01-15T04:14:13;91893.25;;;-3.08;80.05
75219;BME280;63801;49.414;19.474;2024-01-15T04:16:14;91894.31;;;-3.09;79.87
75219;BME280;63801;49.414;19.474;2024-01-15T04:18:15;91889.03;;;-3.09;79.96
75219;BME280;63801;49.414;19.474;2024-01-15T04:20:16;91863.47;;;-3.18;79.95
75219;BME280;63801;49.414;19.474;2024-01-15T04:22:17;91878.69;;;-3.06;80.06
75219;BME280;63801;49.414;19.474;2024-01-15T04:24:17;91869.53;;;-3.08;80.16
75219;BME280;63801;49.414;19.474;2024-01-15T04:26:18;91883.47;;;-2.99;79.81
75219;BME280;63801;49.414;19.474;2024-01-15T04:28:18;91888.59;;;-2.94;79.86
75219;BME280;63801;49.414;19.474;2024-01-15T04:30:18;91874.34;;;-2.93;80.05
75219;BME280;63801;49.414;19.474;2024-01-15T04:32:19;91877.56;;;-2.96;80.00
75219;BME280;63801;49.414;19.474;2024-01-15T04:34:19;91847.50;;;-3.04;79.71
75219;BME280;63801;49.414;19.474;2024-01-15T04:36:19;91857.88;;;-2.90;79.62
75219;BME280;63801;49.414;19.474;2024-01-15T04:38:20;91884.09;;;-2.85;79.94
75219;BME280;63801;49.414;19.474;2024-01-15T04:40:20;91878.81;;;-2.85;79.70
75219;BME280;63801;49.414;19.474;2024-01-15T04:42:23;91879.59;;;-2.85;79.69
75219;BME280;63801;49.414;19.474;2024-01-15T04:44:24;91888.72;;;-2.82;79.54
75219;BME280;63801;49.414;19.474;2024-01-15T04:46:24;91884.72;;;-2.80;79.64
75219;BME280;63801;49.414;19.474;2024-01-15T04:48:24;91885.16;;;-2.78;79.44
75219;BME280;63801;49.414;19.474;2024-01-15T04:50:25;91880.66;;;-2.77;79.52
75219;BME280;63801;49.414;19.474;2024-01-15T04:52:25;91884.56;;;-2.75;79.65
75219;BME280;63801;49.414;19.474;2024-01-15T04:54:25;91870.13;;;-2.77;79.34
75219;BME280;63801;49.414;19.474;2024-01-15T04:56:26;91874.00;;;-2.75;79.28
75219;BME280;63801;49.414;19.474;2024-01-15T04:58:26;91884.38;;;-2.78;79.22
75219;BME280;63801;49.414;19.474;2024-01-15T05:00:27;91871.19;;;-2.78;79.45
75219;BME280;63801;49.414;19.474;2024-01-15T05:02:28;91877.72;;;-2.76;79.37
75219;BME280;63801;49.414;19.474;2024-01-15T05:04:28;91872.91;;;-2.74;79.37
75219;BME280;63801;49.414;19.474;2024-01-15T05:06:28;91863.16;;;-2.82;79.37
75219;BME280;63801;49.414;19.474;2024-01-15T05:08:29;91876.19;;;-2.77;79.27
75219;BME280;63801;49.414;19.474;2024-01-15T05:10:29;91866.72;;;-2.78;79.30
75219;BME280;63801;49.414;19.474;2024-01-15T05:12:29;91875.41;;;-2.77;79.17
75219;BME280;63801;49.414;19.474;2024-01-15T05:14:29;91859.28;;;-2.76;79.11
75219;BME280;63801;49.414;19.474;2024-01-15T05:16:30;91867.03;;;-2.79;79.13
75219;BME280;63801;49.414;19.474;2024-01-15T05:18:30;91845.94;;;-2.79;79.04
75219;BME280;63801;49.414;19.474;2024-01-15T05:20:31;91861.78;;;-2.79;79.20
75219;BME280;63801;49.414;19.474;2024-01-15T05:22:31;91863.94;;;-2.81;79.19
75219;BME280;63801;49.414;19.474;2024-01-15T05:24:31;91845.63;;;-2.86;79.22
75219;BME280;63801;49.414;19.474;2024-01-15T05:26:32;91866.09;;;-2.83;79.08
75219;BME280;63801;49.414;19.474;2024-01-15T05:28:32;91855.41;;;-2.87;79.28
75219;BME280;63801;49.414;19.474;2024-01-15T05:30:32;91852.47;;;-2.85;79.19
75219;BME280;63801;49.414;19.474;2024-01-15T05:32:33;91846.88;;;-2.84;79.15
75219;BME280;63801;49.414;19.474;2024-01-15T05:34:33;91843.31;;;-2.88;79.14
75219;BME280;63801;49.414;19.474;2024-01-15T05:36:33;91840.22;;;-2.90;79.22
75219;BME280;63801;49.414;19.474;2024-01-15T05:38:34;91845.19;;;-2.88;79.46
75219;BME280;63801;49.414;19.474;2024-01-15T05:40:34;91827.34;;;-2.91;79.15
75219;BME280;63801;49.414;19.474;2024-01-15T05:42:34;91847.97;;;-2.93;79.42
75219;BME280;63801;49.414;19.474;2024-01-15T05:44:35;91833.25;;;-2.94;79.50
75219;BME280;63801;49.414;19.474;2024-01-15T05:46:35;91829.84;;;-2.95;79.68
75219;BME280;63801;49.414;19.474;2024-01-15T05:48:36;91835.09;;;-2.95;79.56
75219;BME280;63801;49.414;19.474;2024-01-15T05:50:36;91843.31;;;-2.96;79.48
75219;BME280;63801;49.414;19.474;2024-01-15T05:52:36;91823.03;;;-3.04;79.70
75219;BME280;63801;49.414;19.474;2024-01-15T05:54:37;91833.25;;;-2.94;79.62
75219;BME280;63801;49.414;19.474;2024-01-15T05:56:37;91836.97;;;-2.95;79.55
75219;BME280;63801;49.414;19.474;2024-01-15T05:58:37;91825.97;;;-2.97;79.52
75219;BME280;63801;49.414;19.474;2024-01-15T06:00:38;91833.41;;;-2.99;79.65
75219;BME280;63801;49.414;19.474;2024-01-15T06:02:38;91821.63;;;-3.02;79.57
75219;BME280;63801;49.414;19.474;2024-01-15T06:04:39;91842.09;;;-3.07;79.99
75219;BME280;63801;49.414;19.474;2024-01-15T06:06:39;91854.63;;;-2.96;79.67
75219;BME280;63801;49.414;19.474;2024-01-15T06:08:40;91836.97;;;-2.95;79.43
75219;BME280;63801;49.414;19.474;2024-01-15T06:10:40;91844.72;;;-2.90;79.76
75219;BME280;63801;49.414;19.474;2024-01-15T06:12:43;91836.81;;;-2.90;79.59
75219;BME280;63801;49.414;19.474;2024-01-15T06:14:44;91822.69;;;-2.94;79.93
75219;BME280;63801;49.414;19.474;2024-01-15T06:16:44;91824.41;;;-2.98;80.16
75219;BME280;63801;49.414;19.474;2024-01-15T06:18:44;91809.69;;;-2.99;79.86
75219;BME280;63801;49.414;19.474;2024-01-15T06:20:45;91819.31;;;-3.03;80.06
75219;BME280;63801;49.414;19.474;2024-01-15T06:22:45;91829.06;;;-3.04;80.34
75219;BME280;63801;49.414;19.474;2024-01-15T06:24:45;91813.59;;;-3.05;80.21
75219;BME280;63801;49.414;19.474;2024-01-15T06:26:46;91817.75;;;-3.13;80.25
75219;BME280;63801;49.414;19.474;2024-01-15T06:28:47;91830.47;;;-3.06;80.21
75219;BME280;63801;49.414;19.474;2024-01-15T06:30:47;91832.63;;;-3.08;80.52
75219;BME280;63801;49.414;19.474;2024-01-15T06:32:48;91816.22;;;-3.05;80.29
75219;BME280;63801;49.414;19.474;2024-01-15T06:34:48;91839.59;;;-3.04;80.35
75219;BME280;63801;49.414;19.474;2024-01-15T06:36:48;91840.38;;;-3.03;80.36
75219;BME280;63801;49.414;19.474;2024-01-15T06:38:49;91829.84;;;-3.03;80.63
75219;BME280;63801;49.414;19.474;2024-01-15T06:40:49;91822.41;;;-3.01;80.37
75219;BME280;63801;49.414;19.474;2024-01-15T06:42:50;91832.97;;;-3.01;80.72
75219;BME280;63801;49.414;19.474;2024-01-15T06:44:50;91834.31;;;-2.95;80.62
75219;BME280;63801;49.414;19.474;2024-01-15T06:46:50;91843.78;;;-2.94;80.34
75219;BME280;63801;49.414;19.474;2024-01-15T06:48:51;91838.50;;;-2.94;80.59
75219;BME280;63801;49.414;19.474;2024-01-15T06:50:52;91849.34;;;-2.87;80.54
75219;BME280;63801;49.414;19.474;2024-01-15T06:52:52;91844.41;;;-2.80;80.49
75219;BME280;63801;49.414;19.474;2024-01-15T06:54:53;91831.66;;;-2.78;80.55
75219;BME280;63801;49.414;19.474;2024-01-15T06:56:53;91831.19;;;-2.72;80.24
75219;BME280;63801;49.414;19.474;2024-01-15T06:58:53;91835.84;;;-2.68;80.39
75219;BME280;63801;49.414;19.474;2024-01-15T07:00:54;91852.44;;;-2.68;80.40
75219;BME280;63801;49.414;19.474;2024-01-15T07:02:54;91842.66;;;-2.67;80.51
75219;BME280;63801;49.414;19.474;2024-01-15T07:04:54;91840.31;;;-2.60;80.75
75219;BME280;63801;49.414;19.474;2024-01-15T07:06:55;91829.63;;;-2.64;80.66
75219;BME280;63801;49.414;19.474;2024-01-15T07:08:55;91833.47;;;-2.53;80.33
75219;BME280;63801;49.414;19.474;2024-01-15T07:10:55;91832.69;;;-2.53;80.11
75219;BME280;63801;49.414;19.474;2024-01-15T07:12:56;91829.28;;;-2.54;80.15
75219;BME280;63801;49.414;19.474;2024-01-15T07:14:56;91840.75;;;-2.50;80.31
75219;BME280;63801;49.414;19.474;2024-01-15T07:16:57;91833.47;;;-2.53;80.33
75219;BME280;63801;49.414;19.474;2024-01-15T07:18:57;91831.75;;;-2.49;80.09
75219;BME280;63801;49.414;19.474;2024-01-15T07:20:57;91849.59;;;-2.46;80.56
75219;BME280;63801;49.414;19.474;2024-01-15T07:22:58;91853.13;;;-2.42;80.59
75219;BME280;63801;49.414;19.474;2024-01-15T07:24:59;91860.13;;;-2.37;80.41
75219;BME280;63801;49.414;19.474;2024-01-15T07:26:59;91862.28;;;-2.31;80.22
75219;BME280;63801;49.414;19.474;2024-01-15T07:28:59;91860.56;;;-2.27;80.30
75219;BME280;63801;49.414;19.474;2024-01-15T07:31:00;91878.38;;;-2.23;80.31
75219;BME280;63801;49.414;19.474;2024-01-15T07:33:01;91854.34;;;-2.22;80.15
75219;BME280;63801;49.414;19.474;2024-01-15T07:35:03;91860.38;;;-2.21;79.83
75219;BME280;63801;49.414;19.474;2024-01-15T07:37:04;91872.31;;;-2.15;79.93
75219;BME280;63801;49.414;19.474;2024-01-15T07:39:04;91878.50;;;-2.11;80.06
75219;BME280;63801;49.414;19.474;2024-01-15T07:41:05;91883.59;;;-2.06;80.09
75219;BME280;63801;49.414;19.474;2024-01-15T07:43:05;91881.88;;;-2.02;80.01
75219;BME280;63801;49.414;19.474;2024-01-15T07:45:05;91889.94;;;-1.99;79.88
75219;BME280;63801;49.414;19.474;2024-01-15T07:47:06;91898.19;;;-2.00;80.15
75219;BME280;63801;49.414;19.474;2024-01-15T07:49:06;91907.28;;;-1.89;80.11
75219;BME280;63801;49.414;19.474;2024-01-15T07:51:07;91913.97;;;-1.83;79.57
75219;BME280;63801;49.414;19.474;2024-01-15T07:53:07;91894.38;;;-1.82;79.30
75219;BME280;63801;49.414;19.474;2024-01-15T07:55:08;91895.16;;;-1.82;79.30
75219;BME280;63801;49.414;19.474;2024-01-15T07:57:08;91897.47;;;-1.80;79.50
75219;BME280;63801;49.414;19.474;2024-01-15T07:59:08;91895.16;;;-1.82;79.50
75219;BME280;63801;49.414;19.474;2024-01-15T08:01:09;91895.31;;;-1.78;78.95
75219;BME280;63801;49.414;19.474;2024-01-15T08:03:11;91892.19;;;-1.80;78.90
75219;BME280;63801;49.414;19.474;2024-01-15T08:05:11;91886.91;;;-1.80;79.03
75219;BME280;63801;49.414;19.474;2024-01-15T08:07:12;91889.28;;;-1.87;79.09
75219;BME280;63801;49.414;19.474;2024-01-15T08:09:13;91893.66;;;-1.91;78.82
75219;BME280;63801;49.414;19.474;2024-01-15T08:11:13;91900.00;;;-1.92;79.00
75219;BME280;63801;49.414;19.474;2024-01-15T08:13:13;91886.97;;;-1.97;78.91
75219;BME280;63801;49.414;19.474;2024-01-15T08:15:14;91877.66;;;-1.95;78.76
75219;BME280;63801;49.414;19.474;2024-01-15T08:17:14;91890.59;;;-2.10;78.81
75219;BME280;63801;49.414;19.474;2024-01-15T08:19:16;91898.63;;;-1.98;78.67
75219;BME280;63801;49.414;19.474;2024-01-15T08:21:16;91910.75;;;-1.97;78.70
75219;BME280;63801;49.414;19.474;2024-01-15T08:23:17;91904.38;;;-1.96;78.67
75219;BME280;63801;49.414;19.474;2024-01-15T08:25:17;91908.25;;;-1.94;78.72
75219;BME280;63801;49.414;19.474;2024-01-15T08:27:17;91892.75;;;-1.95;78.86
75219;BME280;63801;49.414;19.474;2024-01-15T08:29:18;91897.66;;;-1.85;78.38
75219;BME280;63801;49.414;19.474;2024-01-15T08:31:21;91887.41;;;-1.87;78.34
75219;BME280;63801;49.414;19.474;2024-01-15T08:33:21;91876.22;;;-1.84;78.24
75219;BME280;63801;49.414;19.474;2024-01-15T08:35:22;91871.06;;;-1.80;78.07
75219;BME280;63801;49.414;19.474;2024-01-15T08:37:23;91858.19;;;-1.82;77.69
75219;BME280;63801;49.414;19.474;2024-01-15T08:39:23;91876.03;;;-1.78;77.48
75219;BME280;63801;49.414;19.474;2024-01-15T08:41:23;91875.69;;;-1.77;77.12
75219;BME280;63801;49.414;19.474;2024-01-15T08:43:24;91878.81;;;-1.75;77.08
75219;BME280;63801;49.414;19.474;2024-01-15T08:45:25;91876.94;;;-1.74;77.01
75219;BME280;63801;49.414;19.474;2024-01-15T08:47:25;91878.53;;;-1.82;76.64
75219;BME280;63801;49.414;19.474;2024-01-15T08:49:25;91894.34;;;-1.73;76.46
75219;BME280;63801;49.414;19.474;2024-01-15T08:51:26;91886.59;;;-1.78;76.10
75219;BME280;63801;49.414;19.474;2024-01-15T08:53:26;91884.75;;;-1.78;75.92
75219;BME280;63801;49.414;19.474;2024-01-15T08:55:27;91856.91;;;-1.75;76.26
75219;BME280;63801;49.414;19.474;2024-01-15T08:57:27;91888.72;;;-1.72;75.92
75219;BME280;63801;49.414;19.474;2024-01-15T08:59:28;91888.72;;;-1.72;75.55
75219;BME280;63801;49.414;19.474;2024-01-15T09:01:28;91904.75;;;-1.68;75.93
75219;BME280;63801;49.414;19.474;2024-01-15T09:03:30;91910.16;;;-1.65;75.45
75219;BME280;63801;49.414;19.474;2024-01-15T09:05:30;91902.81;;;-1.59;75.79
75219;BME280;63801;49.414;19.474;2024-01-15T09:07:30;91906.81;;;-1.53;75.67
75219;BME280;63801;49.414;19.474;2024-01-15T09:09:31;91898.00;;;-1.57;75.43
75219;BME280;63801;49.414;19.474;2024-01-15T09:11:31;91907.72;;;-1.49;75.11
75219;BME280;63801;49.414;19.474;2024-01-15T09:13:32;91900.41;;;-1.44;74.87
75219;BME280;63801;49.414;19.474;2024-01-15T09:15:32;91890.47;;;-1.47;74.56
75219;BME280;63801;49.414;19.474;2024-01-15T09:17:32;91912.59;;;-1.30;74.68
75219;BME280;63801;49.414;19.474;2024-01-15T09:19:33;91910.75;;;-1.09;74.98
75219;BME280;63801;49.414;19.474;2024-01-15T09:21:33;91908.47;;;-0.57;75.16
75219;BME280;63801;49.414;19.474;2024-01-15T09:23:33;91918.88;;;-0.19;73.67
75219;BME280;63801;49.414;19.474;2024-01-15T09:25:33;91907.81;;;-0.01;72.78
75219;BME280;63801;49.414;19.474;2024-01-15T09:27:34;91904.16;;;0.04;71.94
75219;BME280;63801;49.414;19.474;2024-01-15T09:29:35;91904.91;;;0.05;71.22
75219;BME280;63801;49.414;19.474;2024-01-15T09:31:37;91907.91;;;0.03;70.90
75219;BME280;63801;49.414;19.474;2024-01-15T09:33:37;91906.81;;;0.04;71.43
75219;BME280;63801;49.414;19.474;2024-01-15T09:35:37;91901.06;;;0.14;70.76
75219;BME280;63801;49.414;19.474;2024-01-15T09:37:39;91912.81;;;0.13;70.19
75219;BME280;63801;49.414;19.474;2024-01-15T09:39:39;91917.75;;;0.15;70.35
75219;BME280;63801;49.414;19.474;2024-01-15T09:41:40;91906.16;;;0.19;71.00
75219;BME280;63801;49.414;19.474;2024-01-15T09:43:41;91904.97;;;0.29;70.46
75219;BME280;63801;49.414;19.474;2024-01-15T09:45:42;91906.41;;;0.38;71.12
75219;BME280;63801;49.414;19.474;2024-01-15T09:47:43;91902.88;;;0.47;70.39
75219;BME280;63801;49.414;19.474;2024-01-15T09:49:43;91916.59;;;0.49;70.36
75219;BME280;63801;49.414;19.474;2024-01-15T09:51:44;91912.50;;;0.51;70.63
75219;BME280;63801;49.414;19.474;2024-01-15T09:53:46;91920.13;;;0.53;70.33
75219;BME280;63801;49.414;19.474;2024-01-15T09:55:47;91925.84;;;0.55;70.40
75219;BME280;63801;49.414;19.474;2024-01-15T09:57:50;91921.44;;;0.59;70.68
75219;BME280;63801;49.414;19.474;2024-01-15T09:59:51;91919.56;;;0.59;70.36
75219;BME280;63801;49.414;19.474;2024-01-15T10:01:52;91919.03;;;0.66;70.86
75219;BME280;63801;49.414;19.474;2024-01-15T10:03:54;91923.53;;;0.65;70.68
75219;BME280;63801;49.414;19.474;2024-01-15T10:05:55;91921.56;;;0.74;70.47
75219;BME280;63801;49.414;19.474;2024-01-15T10:07:56;91917.25;;;0.70;70.35
75219;BME280;63801;49.414;19.474;2024-01-15T10:09:57;91904.88;;;0.50;69.60
75219;BME280;63801;49.414;19.474;2024-01-15T10:11:58;91910.47;;;0.36;69.03
75219;BME280;63801;49.414;19.474;2024-01-15T10:13:59;91918.09;;;0.25;69.58
75219;BME280;63801;49.414;19.474;2024-01-15T10:16:00;91911.25;;;0.12;68.98
75219;BME280;63801;49.414;19.474;2024-01-15T10:18:03;91903.50;;;-0.05;68.95
75219;BME280;63801;49.414;19.474;2024-01-15T10:20:13;91894.81;;;-0.26;69.31
75219;BME280;63801;49.414;19.474;2024-01-15T10:22:14;91910.22;;;-0.40;69.39
75219;BME280;63801;49.414;19.474;2024-01-15T10:24:14;91911.81;;;-0.48;69.81
75219;BME280;63801;49.414;19.474;2024-01-15T10:26:14;91911.13;;;-0.57;69.53
75219;BME280;63801;49.414;19.474;2024-01-15T10:28:15;91904.59;;;-0.72;69.46
75219;BME280;63801;49.414;19.474;2024-01-15T10:30:15;91894.38;;;-0.82;69.63